createdAt,value
2022-12-08T00:03:06.627Z,99703.64
2022-12-08T00:24:52.465Z,99696.70
2022-12-08T00:46:36.635Z,99695.34
2022-12-08T01:08:22.498Z,99709.00
2022-12-08T01:30:11.090Z,99700.43
2022-12-08T01:52:01.398Z,99692.15
2022-12-08T02:13:51.544Z,99688.67
2022-12-08T02:35:45.468Z,99684.49
2022-12-08T02:57:44.873Z,99685.78
2022-12-08T03:19:35.866Z,99676.80
2022-12-08T03:41:22.876Z,99665.20
2022-12-08T04:03:08.770Z,99673.79
2022-12-08T04:24:54.642Z,99672.41
2022-12-08T04:46:43.574Z,99648.45
2022-12-08T05:08:30.712Z,99637.77
2022-12-08T05:30:17.217Z,99627.62
2022-12-08T05:52:02.961Z,99623.73
2022-12-08T06:13:47.236Z,99620.72
2022-12-08T06:35:32.965Z,99618.30
2022-12-08T06:57:18.638Z,99619.94
2022-12-08T07:19:04.634Z,99624.31
2022-12-08T07:40:51.342Z,99626.02
2022-12-08T08:02:37.569Z,99627.34
2022-12-08T08:24:24.748Z,99636.54
2022-12-08T08:46:11.196Z,99632.44
2022-12-08T09:07:58.572Z,99624.59
2022-12-08T09:29:44.765Z,99606.95
2022-12-08T09:51:38.985Z,99589.17
2022-12-08T10:13:34.373Z,99582.04
2022-12-08T10:35:23.467Z,99571.95
2022-12-08T10:57:21.029Z,99556.81
2022-12-08T11:19:07.941Z,99553.77
2022-12-08T11:40:59.401Z,99537.16
2022-12-08T12:02:54.174Z,99530.39
2022-12-08T12:24:43.957Z,99514.28
2022-12-08T12:46:54.547Z,99510.20
2022-12-08T13:08:51.968Z,99494.83
2022-12-08T13:30:49.093Z,99483.70
2022-12-08T13:53:56.132Z,99477.45
2022-12-08T14:15:02.694Z,99476.36
2022-12-08T14:36:50.037Z,99480.17
2022-12-08T14:58:37.160Z,99489.17
2022-12-08T15:20:41.202Z,99494.41
2022-12-08T15:42:27.082Z,99498.40
2022-12-08T16:05:11.679Z,99497.21
2022-12-08T16:48:32.087Z,99490.34
2022-12-08T17:10:20.072Z,99492.74
2022-12-08T17:32:06.294Z,99483.38
2022-12-08T17:53:52.357Z,99483.17
2022-12-08T18:15:39.394Z,99495.68
2022-12-08T18:37:27.217Z,99494.48
2022-12-08T18:59:16.221Z,99496.55
2022-12-08T19:21:02.317Z,99491.05
2022-12-08T19:43:05.725Z,99493.33
2022-12-08T20:04:53.870Z,99486.50
2022-12-08T20:26:39.769Z,99474.02
2022-12-08T20:48:30.507Z,99488.51
2022-12-08T21:10:17.693Z,99491.52
2022-12-08T21:32:04.142Z,99489.73
2022-12-08T21:53:52.619Z,99491.08
2022-12-08T22:15:38.616Z,99492.80
2022-12-08T22:37:24.719Z,99483.73
2022-12-08T22:59:10.633Z,99481.05
2022-12-08T23:20:59.168Z,99479.14
2022-12-08T23:42:44.953Z,99476.70
